Time;durP1;ratioP1;P1;durP2;ratioP2;P2;SDS_P1;SDS_P2;PMS_P1;PMS_P2;Temp;Humidity;BMP_temperature;BMP_pressure;BME280_temperature;BME280_humidity;BME280_pressure;Samples;Min_cycle;Max_cycle;Signal;HPM_P1;HPM_P2
2022/12/19 00:02:52;;;;;;;4.88;3.30;;;16.50;56.80;;;;;;10430933;28;20480;-58
2022/12/19 00:07:53;;;;;;;5.57;3.50;;;16.50;56.80;;;;;;10435540;28;20696;-55
2022/12/19 00:12:53;;;;;;;5.03;3.08;;;16.50;56.80;;;;;;10448683;28;20051;-57
2022/12/19 00:17:54;;;;;;;4.43;3.50;;;16.40;56.80;;;;;;10448588;28;20082;-56
2022/12/19 00:22:55;;;;;;;3.63;3.08;;;16.50;56.80;;;;;;10444665;28;20048;-56
2022/12/19 00:27:55;;;;;;;3.92;2.92;;;16.40;56.80;;;;;;10389451;28;20092;-57
2022/12/19 00:32:56;;;;;;;4.68;3.72;;;16.40;56.70;;;;;;10406830;28;20025;-57
2022/12/19 00:37:57;;;;;;;4.95;3.60;;;16.50;56.80;;;;;;10406437;28;20041;-57
2022/12/19 00:42:57;;;;;;;5.15;3.80;;;16.40;57.20;;;;;;10414749;28;20116;-56
2022/12/19 00:47:58;;;;;;;5.85;3.47;;;16.40;56.80;;;;;;10446091;28;20068;-57
2022/12/19 00:52:58;;;;;;;4.63;3.25;;;16.40;56.70;;;;;;10434065;28;20052;-55
2022/12/19 00:57:59;;;;;;;6.85;3.70;;;16.40;56.70;;;;;;10446882;28;20052;-57
2022/12/19 01:03:00;;;;;;;5.20;3.28;;;16.40;56.60;;;;;;10446918;28;20516;-57
2022/12/19 01:08:00;;;;;;;5.65;3.13;;;16.40;56.60;;;;;;10418050;28;20049;-59
2022/12/19 01:13:01;;;;;;;5.65;3.55;;;16.40;56.70;;;;;;10446808;28;20025;-57
2022/12/19 01:18:02;;;;;;;4.93;3.08;;;16.40;56.80;;;;;;10446790;28;20057;-56
2022/12/19 01:23:03;;;;;;;4.60;3.45;;;16.40;56.80;;;;;;10445294;28;20049;-56
2022/12/19 01:28:05;;;;;;;5.05;3.47;;;16.40;56.70;;;;;;10445045;28;20123;-56
2022/12/19 01:33:11;;;;;;;4.80;3.17;;;16.40;56.70;;;;;;10412174;28;20491;-57
2022/12/19 01:38:18;;;;;;;5.05;3.47;;;16.40;56.60;;;;;;10439368;28;20562;-57
2022/12/19 01:43:20;;;;;;;5.22;3.55;;;16.50;56.50;;;;;;10407474;28;20041;-57
2022/12/19 01:48:39;;;;;;;5.20;3.40;;;16.50;56.40;;;;;;10386967;28;20125;-57
2022/12/19 01:53:58;;;;;;;4.88;3.53;;;16.50;56.40;;;;;;10416743;28;20020;-57
2022/12/19 01:59:04;;;;;;;4.50;3.00;;;16.50;56.50;;;;;;10422885;28;20017;-55
2022/12/19 02:04:05;;;;;;;5.20;3.55;;;16.40;56.60;;;;;;10422624;28;20458;-56
2022/12/19 02:09:06;;;;;;;4.82;3.15;;;16.30;56.70;;;;;;10403450;28;20025;-56
2022/12/19 02:14:06;;;;;;;4.30;2.97;;;16.30;56.80;;;;;;10403008;28;20014;-57
2022/12/19 02:19:46;;;;;;;4.80;3.08;;;16.30;56.80;;;;;;10421766;28;20033;-58
2022/12/19 02:25:37;;;;;;;5.30;3.80;;;16.30;56.70;;;;;;10452924;28;20013;-57
2022/12/19 02:31:30;;;;;;;4.27;2.60;;;16.40;56.70;;;;;;10439617;28;20038;-56
2022/12/19 02:36:40;;;;;;;5.07;3.90;;;16.40;56.70;;;;;;10430633;28;20032;-58
2022/12/19 02:41:48;;;;;;;4.20;3.20;;;16.40;56.60;;;;;;10428746;28;20025;-57
2022/12/19 02:46:51;;;;;;;4.13;3.10;;;16.40;56.60;;;;;;10409497;28;20108;-54
2022/12/19 02:51:51;;;;;;;4.72;3.10;;;16.40;56.60;;;;;;10436632;28;20021;-56
2022/12/19 02:57:21;;;;;;;4.20;2.83;;;16.40;56.60;;;;;;10436706;28;20029;-57
2022/12/19 03:02:27;;;;;;;5.18;2.95;;;16.40;56.60;;;;;;10415376;28;20028;-56
2022/12/19 03:07:48;;;;;;;5.38;3.08;;;16.40;56.50;;;;;;10451245;28;20013;-57
2022/12/19 03:13:20;;;;;;;4.00;2.90;;;16.40;56.50;;;;;;10409858;28;20033;-57
2022/12/19 03:18:21;;;;;;;3.38;2.35;;;16.40;56.40;;;;;;10408858;28;20018;-56
2022/12/19 03:23:22;;;;;;;3.42;2.65;;;16.40;56.50;;;;;;10416498;28;20838;-58
2022/12/19 03:28:36;;;;;;;5.32;2.80;;;16.40;56.40;;;;;;10440598;28;20061;-57
2022/12/19 03:33:39;;;;;;;4.15;2.70;;;16.40;56.40;;;;;;10410526;28;20068;-56
2022/12/19 03:38:43;;;;;;;3.85;3.33;;;16.40;56.60;;;;;;10407746;28;20017;-57
2022/12/19 03:43:45;;;;;;;3.83;2.60;;;16.40;56.40;;;;;;10408077;28;20056;-58
2022/12/19 03:48:49;;;;;;;4.05;2.38;;;16.50;56.30;;;;;;10436526;28;20072;-55
2022/12/19 03:54:14;;;;;;;4.18;2.78;;;16.50;56.30;;;;;;10417812;28;20549;-57
2022/12/19 03:59:38;;;;;;;3.38;2.45;;;16.50;56.20;;;;;;10428702;28;20799;-56
2022/12/19 04:04:44;;;;;;;3.47;2.22;;;16.40;56.40;;;;;;10434833;28;20017;-56
2022/12/19 04:09:46;;;;;;;3.60;2.58;;;16.40;56.60;;;;;;10421046;28;20013;-57
2022/12/19 04:14:48;;;;;;;4.45;2.40;;;16.40;56.60;;;;;;10417516;28;20018;-57
2022/12/19 04:19:51;;;;;;;3.72;2.58;;;16.30;56.70;;;;;;10426541;28;20044;-56
2022/12/19 04:24:54;;;;;;;3.22;2.42;;;16.30;56.80;;;;;;10425819;28;20092;-56
2022/12/19 04:29:58;;;;;;;3.58;2.58;;;16.30;56.70;;;;;;10429722;28;20032;-57
2022/12/19 04:35:00;;;;;;;4.32;3.00;;;16.40;56.70;;;;;;10427238;28;20092;-55
2022/12/19 04:40:01;;;;;;;3.55;2.55;;;16.30;56.70;;;;;;10436691;28;20034;-56
2022/12/19 04:45:04;;;;;;;3.30;2.28;;;16.30;56.60;;;;;;10429794;28;20033;-56
2022/12/19 04:50:05;;;;;;;3.92;2.65;;;16.30;56.60;;;;;;10408572;28;20022;-57
2022/12/19 04:55:07;;;;;;;3.15;2.20;;;16.30;56.50;;;;;;10426473;28;20212;-56
2022/12/19 05:00:08;;;;;;;4.07;2.35;;;16.40;56.60;;;;;;10414915;28;20029;-57
2022/12/19 05:05:09;;;;;;;3.30;2.10;;;16.30;56.60;;;;;;10412524;28;20024;-56
2022/12/19 05:10:10;;;;;;;3.20;2.10;;;16.40;56.60;;;;;;10443118;28;20032;-56
2022/12/19 05:15:10;;;;;;;2.80;2.13;;;16.30;56.50;;;;;;10429814;28;20021;-55
2022/12/19 05:20:11;;;;;;;4.00;2.55;;;16.30;56.60;;;;;;10426780;28;20041;-54
2022/12/19 05:25:12;;;;;;;3.40;2.40;;;16.30;56.50;;;;;;10417631;28;20079;-55
2022/12/19 05:30:13;;;;;;;3.40;2.17;;;16.40;56.50;;;;;;10403523;28;20117;-56
2022/12/19 05:35:13;;;;;;;4.13;2.50;;;16.40;56.40;;;;;;10403921;28;20022;-54
2022/12/19 05:40:14;;;;;;;3.65;2.38;;;16.40;56.40;;;;;;10403611;28;20040;-54
2022/12/19 05:45:15;;;;;;;3.60;2.53;;;16.30;56.50;;;;;;10414362;28;20124;-56
2022/12/19 05:50:16;;;;;;;6.05;2.53;;;16.30;57.30;;;;;;10428535;28;20029;-54
2022/12/19 05:55:17;;;;;;;7.55;2.60;;;16.30;57.90;;;;;;10453061;28;20013;-52
2022/12/19 06:00:18;;;;;;;3.95;2.10;;;16.40;57.90;;;;;;10452301;28;20051;-54
2022/12/19 06:05:19;;;;;;;10.95;3.25;;;16.40;58.70;;;;;;10440644;28;20053;-56
2022/12/19 06:10:19;;;;;;;13.55;3.33;;;16.40;58.90;;;;;;10441720;28;20018;-55
2022/12/19 06:15:20;;;;;;;5.20;2.67;;;16.40;59.40;;;;;;10426034;28;20040;-54
2022/12/19 06:20:21;;;;;;;13.38;3.28;;;16.30;59.00;;;;;;10445650;28;20029;-57
2022/12/19 06:25:22;;;;;;;10.55;3.38;;;16.30;59.00;;;;;;10416735;28;20741;-55
2022/12/19 06:30:22;;;;;;;13.88;3.20;;;16.30;59.60;;;;;;10413175;28;20112;-54
2022/12/19 06:35:23;;;;;;;9.38;2.33;;;16.30;59.50;;;;;;10424535;28;20056;-55
2022/12/19 06:45:42;;;;;;;13.03;2.60;;;16.20;60.50;;;;;;10440500;28;20045;-55
2022/12/19 06:50:43;;;;;;;10.57;2.97;;;16.20;60.40;;;;;;10431272;28;20532;-55
2022/12/19 06:55:46;;;;;;;8.75;2.88;;;16.20;60.80;;;;;;10450391;28;20067;-55
2022/12/19 07:00:48;;;;;;;7.07;3.22;;;16.10;60.40;;;;;;10423515;28;20029;-56
2022/12/19 07:05:49;;;;;;;13.70;2.90;;;16.10;60.70;;;;;;10435399;28;20547;-56
2022/12/19 07:10:49;;;;;;;8.23;3.30;;;16.20;61.40;;;;;;10428675;28;20032;-55
2022/12/19 07:15:53;;;;;;;13.00;2.33;;;16.20;60.50;;;;;;10437359;28;20116;-55
2022/12/19 07:20:55;;;;;;;7.85;2.25;;;16.10;60.10;;;;;;10402819;28;20076;-52
2022/12/19 07:25:56;;;;;;;9.20;2.50;;;16.00;60.00;;;;;;10404251;28;20013;-53
2022/12/19 07:30:57;;;;;;;9.13;3.03;;;15.90;60.10;;;;;;10404290;28;20033;-54
2022/12/19 07:35:57;;;;;;;12.82;3.70;;;15.80;60.10;;;;;;10402039;28;20152;-55
2022/12/19 07:41:01;;;;;;;10.30;2.30;;;15.80;60.40;;;;;;10384848;28;20120;-54
2022/12/19 07:46:01;;;;;;;7.53;2.60;;;16.00;60.40;;;;;;10408513;28;20741;-55
2022/12/19 07:51:03;;;;;;;9.65;2.67;;;16.10;59.80;;;;;;10442914;28;20109;-55
2022/12/19 07:56:04;;;;;;;6.05;2.20;;;16.10;60.30;;;;;;10427847;28;20021;-54
2022/12/19 08:01:05;;;;;;;5.13;2.13;;;16.10;60.50;;;;;;10426347;28;20389;-55
2022/12/19 08:06:07;;;;;;;8.02;2.88;;;16.10;60.40;;;;;;10412779;28;20017;-55
2022/12/19 08:11:12;;;;;;;4.80;2.00;;;16.10;60.10;;;;;;10429857;28;20017;-55
2022/12/19 08:16:13;;;;;;;4.63;2.30;;;16.10;60.70;;;;;;10426202;28;20079;-56
2022/12/19 08:21:14;;;;;;;7.05;2.20;;;16.10;60.70;;;;;;10432787;28;20036;-55
2022/12/19 08:26:23;;;;;;;5.03;1.98;;;16.10;59.70;;;;;;10430914;28;20360;-53
2022/12/19 08:31:26;;;;;;;6.10;1.95;;;16.10;59.90;;;;;;10429286;28;20469;-54
2022/12/19 08:36:27;;;;;;;8.18;3.70;;;16.10;59.70;;;;;;10435416;28;20026;-54
2022/12/19 08:41:27;;;;;;;6.90;2.00;;;16.20;59.80;;;;;;10405201;28;20068;-55
2022/12/19 08:46:28;;;;;;;6.32;1.95;;;16.20;60.80;;;;;;10434483;28;20178;-52
2022/12/19 08:51:29;;;;;;;4.07;1.88;;;16.20;60.80;;;;;;10431117;28;20116;-54
2022/12/19 08:56:29;;;;;;;12.73;2.50;;;16.10;60.30;;;;;;10433255;28;20028;-53
2022/12/19 09:01:30;;;;;;;4.82;1.80;;;16.10;59.80;;;;;;10418421;28;20033;-53
2022/12/19 09:06:31;;;;;;;5.68;2.00;;;16.10;60.20;;;;;;10433024;28;20728;-54
2022/12/19 09:11:32;;;;;;;4.85;2.03;;;16.10;60.20;;;;;;10421205;28;20021;-54
2022/12/19 09:16:33;;;;;;;4.07;1.42;;;16.10;59.90;;;;;;10428002;28;20030;-53
2022/12/19 09:21:34;;;;;;;3.70;1.88;;;16.10;59.80;;;;;;10425029;28;20219;-55
2022/12/19 09:26:37;;;;;;;4.78;1.80;;;16.00;59.80;;;;;;10428124;28;20092;-54
2022/12/19 09:31:38;;;;;;;4.15;1.73;;;16.00;59.60;;;;;;10417794;28;20064;-54
2022/12/19 09:36:38;;;;;;;6.00;2.00;;;16.00;59.40;;;;;;10413722;28;20017;-54
2022/12/19 09:41:55;;;;;;;5.10;1.50;;;16.10;59.10;;;;;;10429383;28;20121;-55
2022/12/19 09:47:01;;;;;;;3.95;1.73;;;16.10;59.00;;;;;;10439257;28;20087;-55
2022/12/19 09:52:18;;;;;;;2.38;1.30;;;16.10;58.90;;;;;;10435311;28;20029;-56
2022/12/19 09:57:29;;;;;;;3.40;1.60;;;16.10;58.60;;;;;;10431189;28;20379;-53
2022/12/19 10:02:46;;;;;;;4.57;1.27;;;16.10;58.70;;;;;;10439645;28;20040;-53
2022/12/19 10:07:46;;;;;;;5.32;1.60;;;16.10;58.60;;;;;;10433973;28;20055;-54
2022/12/19 10:13:25;;;;;;;4.10;1.38;;;16.10;58.60;;;;;;10410340;28;20021;-54
2022/12/19 10:18:54;;;;;;;2.25;1.23;;;16.00;58.60;;;;;;10433258;28;20025;-53
2022/12/19 10:24:32;;;;;;;3.88;1.95;;;16.00;58.70;;;;;;10435088;28;20491;-53
2022/12/19 10:30:15;;;;;;;2.88;1.55;;;16.00;58.70;;;;;;10426058;28;20040;-54
2022/12/19 10:35:18;;;;;;;2.33;1.30;;;16.00;58.60;;;;;;10430842;28;20059;-53
2022/12/19 10:40:37;;;;;;;4.18;1.45;;;16.00;58.40;;;;;;10428830;28;20117;-54
2022/12/19 10:45:44;;;;;;;2.65;1.20;;;16.00;58.20;;;;;;10431290;28;20041;-54
2022/12/19 10:50:46;;;;;;;3.05;1.50;;;16.00;58.20;;;;;;10441160;28;20074;-53
2022/12/19 10:55:55;;;;;;;2.60;1.20;;;16.00;58.00;;;;;;10429226;28;20027;-54
2022/12/19 11:01:11;;;;;;;6.13;1.73;;;16.00;58.10;;;;;;10435683;28;20500;-55
2022/12/19 11:06:45;;;;;;;3.63;1.42;;;16.00;58.80;;;;;;10431735;28;20017;-54
2022/12/19 11:11:54;;;;;;;3.60;1.33;;;16.00;59.50;;;;;;10431081;28;20065;-53
2022/12/19 11:16:55;;;;;;;3.83;1.80;;;16.10;59.40;;;;;;10445554;28;20108;-57
2022/12/19 11:22:13;;;;;;;6.63;1.50;;;16.10;60.00;;;;;;10426656;28;20469;-54
2022/12/19 11:27:50;;;;;;;4.18;1.70;;;16.00;60.50;;;;;;10430950;28;20021;-53
2022/12/19 11:33:15;;;;;;;6.35;2.00;;;16.00;60.40;;;;;;10412172;28;20492;-55
2022/12/19 11:38:38;;;;;;;6.78;1.75;;;16.00;60.70;;;;;;10426536;28;20519;-52
2022/12/19 11:44:12;;;;;;;10.48;2.15;;;16.00;61.00;;;;;;10425797;28;20060;-55
2022/12/19 11:49:35;;;;;;;8.82;2.15;;;16.10;61.40;;;;;;10426947;28;20072;-54
2022/12/19 11:54:55;;;;;;;9.15;1.92;;;16.00;60.80;;;;;;10415569;28;20025;-54
2022/12/19 11:59:56;;;;;;;8.65;2.00;;;15.90;61.50;;;;;;10406097;28;20057;-55
2022/12/19 12:05:27;;;;;;;8.43;2.15;;;15.90;61.60;;;;;;10432904;28;20112;-54
2022/12/19 12:10:30;;;;;;;12.52;2.08;;;15.90;61.30;;;;;;10427897;28;20096;-52
2022/12/19 12:16:01;;;;;;;12.05;2.85;;;15.90;62.30;;;;;;10435807;28;20025;-54
2022/12/19 12:21:43;;;;;;;11.52;2.30;;;15.90;61.80;;;;;;10428317;28;20037;-53
2022/12/19 12:27:04;;;;;;;14.30;1.90;;;15.90;61.80;;;;;;10431622;28;20021;-53
2022/12/19 12:32:50;;;;;;;15.88;2.67;;;16.00;61.50;;;;;;10409857;28;20049;-54
2022/12/19 12:38:14;;;;;;;13.48;3.63;;;16.10;61.90;;;;;;10426655;28;20643;-53
2022/12/19 12:43:44;;;;;;;18.42;2.60;;;16.00;62.00;;;;;;10436204;28;20048;-53
2022/12/19 12:49:42;;;;;;;10.73;2.50;;;16.00;62.10;;;;;;10445972;28;20115;-52
2022/12/19 12:54:45;;;;;;;8.15;2.85;;;16.00;61.80;;;;;;10444580;28;20029;-54
2022/12/19 12:59:47;;;;;;;11.48;2.35;;;15.90;61.50;;;;;;10436757;28;20090;-55
2022/12/19 13:05:00;;;;;;;9.63;1.92;;;15.90;61.50;;;;;;10440006;28;20071;-53
2022/12/19 13:10:12;;;;;;;12.48;2.70;;;15.80;61.40;;;;;;10438019;28;20392;-53
2022/12/19 13:15:33;;;;;;;5.50;1.63;;;15.80;61.40;;;;;;10438329;28;20021;-55
2022/12/19 13:20:45;;;;;;;17.80;2.80;;;15.80;61.30;;;;;;10442353;28;20048;-54
2022/12/19 13:25:50;;;;;;;9.85;2.20;;;15.80;61.80;;;;;;10442783;28;20075;-54
2022/12/19 13:31:10;;;;;;;11.82;2.72;;;15.80;62.00;;;;;;10439886;28;20068;-54
2022/12/19 13:36:50;;;;;;;9.15;2.67;;;15.90;61.30;;;;;;10439672;28;20032;-54
2022/12/19 13:47:36;;;;;;;12.40;2.60;;;16.10;61.00;;;;;;10409375;28;20049;-52
2022/12/19 13:52:38;;;;;;;10.45;2.08;;;16.10;61.20;;;;;;10426675;28;20409;-53
2022/12/19 13:57:38;;;;;;;11.80;2.45;;;16.00;61.40;;;;;;10424281;28;20021;-53
2022/12/19 14:02:47;;;;;;;8.60;2.50;;;16.00;61.70;;;;;;10439574;28;20178;-55
2022/12/19 14:07:49;;;;;;;18.85;3.42;;;16.00;61.90;;;;;;10415638;28;20022;-55
2022/12/19 14:18:19;;;;;;;14.73;3.40;;;15.90;62.50;;;;;;10437185;28;20568;-54
2022/12/19 14:23:20;;;;;;;15.52;3.05;;;15.90;62.30;;;;;;10429476;28;20033;-54
2022/12/19 14:28:30;;;;;;;17.80;3.15;;;16.00;62.00;;;;;;10433003;28;20494;-55
2022/12/19 14:33:45;;;;;;;20.08;3.28;;;16.00;62.10;;;;;;10431577;28;20038;-55
2022/12/19 14:38:48;;;;;;;22.23;4.22;;;15.80;63.20;;;;;;10432503;28;20041;-53
2022/12/19 14:43:54;;;;;;;17.23;3.28;;;15.70;62.70;;;;;;10422636;28;20172;-54
2022/12/19 14:49:00;;;;;;;20.45;4.43;;;15.80;62.70;;;;;;10436147;28;20029;-53
2022/12/19 14:54:03;;;;;;;13.02;3.92;;;15.90;62.80;;;;;;10430897;28;20025;-55
2022/12/19 14:59:04;;;;;;;27.02;6.07;;;15.90;62.40;;;;;;10438695;28;20627;-54
2022/12/19 15:04:14;;;;;;;23.77;4.75;;;15.90;62.20;;;;;;10444934;28;20033;-54
2022/12/19 15:09:17;;;;;;;16.67;4.10;;;15.90;62.50;;;;;;10426587;28;20422;-55
2022/12/19 15:14:43;;;;;;;14.77;2.92;;;15.90;62.00;;;;;;10442819;28;20028;-54
2022/12/19 15:19:44;;;;;;;15.43;2.47;;;15.90;62.00;;;;;;10435132;28;20021;-55
2022/12/19 15:24:45;;;;;;;8.55;2.30;;;15.90;62.00;;;;;;10442531;28;20026;-55
2022/12/19 15:29:45;;;;;;;11.43;2.58;;;15.90;61.80;;;;;;10433850;28;20021;-56
2022/12/19 15:34:46;;;;;;;16.13;3.45;;;15.90;61.70;;;;;;10418048;28;20417;-56
2022/12/19 15:39:46;;;;;;;9.45;2.60;;;15.90;61.60;;;;;;10415785;28;20083;-55
2022/12/19 15:44:49;;;;;;;13.13;3.20;;;15.90;61.50;;;;;;10423752;28;20136;-53
2022/12/19 15:49:50;;;;;;;13.38;2.25;;;16.00;61.20;;;;;;10435665;28;20496;-55
2022/12/19 15:54:51;;;;;;;16.70;3.47;;;16.00;61.10;;;;;;10433936;28;20071;-53
2022/12/19 15:59:52;;;;;;;10.57;2.30;;;15.90;61.20;;;;;;10446561;28;20112;-53
2022/12/19 16:04:53;;;;;;;9.43;2.20;;;16.00;61.20;;;;;;10447613;28;20525;-55
2022/12/19 16:09:54;;;;;;;11.90;2.42;;;15.90;61.30;;;;;;10435688;28;20095;-55
2022/12/19 16:14:57;;;;;;;8.77;2.28;;;16.00;61.10;;;;;;10432865;28;20024;-54
2022/12/19 16:19:58;;;;;;;12.50;2.55;;;16.10;61.30;;;;;;10426361;28;20065;-55
2022/12/19 16:24:59;;;;;;;16.15;4.38;;;15.90;61.60;;;;;;10441925;28;20059;-55
2022/12/19 16:30:17;;;;;;;19.85;3.03;;;15.80;62.00;;;;;;10431786;28;20136;-57
2022/12/19 16:35:23;;;;;;;14.82;3.92;;;15.90;62.00;;;;;;10415025;28;20084;-54
2022/12/19 16:40:25;;;;;;;62.17;28.08;;;15.90;62.10;;;;;;10444478;28;20094;-56
2022/12/19 16:45:26;;;;;;;77.53;36.58;;;15.90;61.80;;;;;;10439054;28;20045;-54
2022/12/19 16:50:29;;;;;;;46.90;22.83;;;15.90;63.90;;;;;;10444592;28;20033;-56
2022/12/19 16:55:30;;;;;;;39.85;16.98;;;15.90;62.40;;;;;;10440494;28;20101;-55
2022/12/19 17:00:36;;;;;;;37.55;15.05;;;16.00;64.30;;;;;;10443530;28;20033;-55
2022/12/19 17:05:36;;;;;;;41.05;15.82;;;16.20;67.50;;;;;;10444874;28;20018;-54
2022/12/19 17:10:40;;;;;;;30.08;15.55;;;16.50;65.90;;;;;;10393532;28;20068;-54
2022/12/19 17:15:42;;;;;;;33.40;16.08;;;16.40;65.50;;;;;;10415364;28;20775;-56
2022/12/19 17:20:45;;;;;;;25.90;13.23;;;16.30;65.80;;;;;;10445551;28;20047;-56
2022/12/19 17:25:46;;;;;;;36.05;14.45;;;16.30;65.60;;;;;;10446365;28;20080;-55
2022/12/19 17:30:52;;;;;;;23.98;12.30;;;16.30;65.60;;;;;;10431508;28;20026;-55
2022/12/19 17:35:52;;;;;;;29.30;12.52;;;16.20;66.10;;;;;;10433016;28;20085;-55
2022/12/19 17:40:53;;;;;;;30.20;12.18;;;16.10;65.40;;;;;;10440675;28;20112;-55
2022/12/19 17:45:54;;;;;;;26.13;11.88;;;16.00;65.30;;;;;;10441555;28;20048;-55
2022/12/19 17:50:55;;;;;;;26.77;12.10;;;16.00;65.20;;;;;;10439884;28;20025;-53
2022/12/19 17:55:56;;;;;;;27.25;10.88;;;15.90;66.80;;;;;;10432520;28;20427;-54
2022/12/19 18:00:57;;;;;;;21.92;10.90;;;15.90;65.30;;;;;;10434520;28;20025;-56
2022/12/19 18:05:58;;;;;;;21.27;10.80;;;15.80;65.20;;;;;;10449243;28;20017;-56
2022/12/19 18:11:02;;;;;;;21.48;8.98;;;15.80;65.60;;;;;;10448473;28;20047;-55
2022/12/19 18:16:08;;;;;;;22.77;9.63;;;15.70;65.70;;;;;;10439684;28;20049;-54
2022/12/19 18:21:15;;;;;;;20.77;9.48;;;15.70;65.30;;;;;;10451541;28;20033;-55
2022/12/19 18:26:16;;;;;;;15.18;8.80;;;15.70;65.20;;;;;;10451406;28;20025;-55
2022/12/19 18:31:24;;;;;;;18.25;7.40;;;15.70;65.10;;;;;;10431095;28;20443;-53
2022/12/19 18:36:27;;;;;;;16.73;8.52;;;15.70;65.10;;;;;;10447532;28;20029;-55
2022/12/19 18:41:28;;;;;;;16.35;7.25;;;15.70;65.10;;;;;;10448877;28;20076;-56
2022/12/19 18:46:30;;;;;;;16.23;8.93;;;15.80;65.70;;;;;;10435012;28;20124;-55
2022/12/19 18:51:31;;;;;;;25.95;9.20;;;15.80;65.10;;;;;;10423393;28;20026;-54
2022/12/19 18:56:31;;;;;;;13.40;6.32;;;15.80;64.90;;;;;;10416240;28;20476;-56
2022/12/19 19:01:42;;;;;;;13.55;6.88;;;15.80;64.40;;;;;;10433194;28;20116;-54
2022/12/19 19:06:43;;;;;;;14.73;6.80;;;15.90;64.30;;;;;;10446939;28;20575;-54
2022/12/19 19:11:44;;;;;;;18.00;6.28;;;15.90;64.10;;;;;;10449623;28;20027;-54
2022/12/19 19:16:45;;;;;;;14.18;5.78;;;15.90;63.90;;;;;;10435861;28;20025;-55
2022/12/19 19:21:45;;;;;;;15.23;6.13;;;15.80;63.80;;;;;;10433691;28;20064;-56
2022/12/19 19:26:46;;;;;;;11.23;5.65;;;15.90;63.50;;;;;;10422427;28;20021;-56
2022/12/19 19:31:50;;;;;;;9.48;5.13;;;15.90;63.40;;;;;;10445899;28;20470;-56
2022/12/19 19:36:54;;;;;;;10.45;5.07;;;16.00;63.30;;;;;;10440695;28;20017;-55
2022/12/19 19:41:55;;;;;;;11.65;5.15;;;16.00;63.10;;;;;;10427674;28;20021;-56
2022/12/19 19:46:56;;;;;;;11.13;5.28;;;16.00;63.10;;;;;;10433013;28;20124;-55
2022/12/19 19:51:56;;;;;;;11.27;4.57;;;16.00;63.20;;;;;;10435594;28;20032;-56
2022/12/19 19:56:57;;;;;;;10.98;5.30;;;16.00;63.20;;;;;;10434410;28;20013;-54
2022/12/19 20:01:58;;;;;;;8.07;3.70;;;16.00;63.20;;;;;;10439100;28;20487;-52
2022/12/19 20:06:59;;;;;;;8.13;4.45;;;16.00;63.30;;;;;;10440939;28;20040;-55
2022/12/19 20:11:59;;;;;;;7.40;4.05;;;16.00;63.30;;;;;;10426678;28;20053;-55
2022/12/19 20:17:00;;;;;;;9.60;4.80;;;16.00;63.50;;;;;;10430925;28;20067;-56
2022/12/19 20:22:01;;;;;;;8.50;4.55;;;16.00;63.70;;;;;;10438663;28;20036;-54
2022/12/19 20:27:02;;;;;;;7.03;3.60;;;16.00;63.60;;;;;;10442716;28;20104;-53
2022/12/19 20:32:03;;;;;;;8.40;4.30;;;15.90;63.50;;;;;;10423452;28;20043;-55
2022/12/19 20:37:04;;;;;;;9.13;4.28;;;15.90;63.60;;;;;;10405874;28;20033;-54
2022/12/19 20:42:05;;;;;;;6.38;3.42;;;15.90;63.40;;;;;;10432662;28;20116;-56
2022/12/19 20:47:06;;;;;;;10.52;4.13;;;16.00;63.20;;;;;;10433167;28;20041;-55
2022/12/19 20:52:06;;;;;;;9.90;3.58;;;16.00;63.10;;;;;;10447329;28;20460;-56
2022/12/19 20:57:07;;;;;;;14.07;5.18;;;16.00;62.90;;;;;;10441630;28;20391;-55
2022/12/19 21:02:10;;;;;;;7.53;4.15;;;16.00;62.90;;;;;;10446201;28;20055;-55
2022/12/19 21:07:10;;;;;;;5.88;3.20;;;16.00;62.90;;;;;;10432213;28;20017;-56
2022/12/19 21:12:12;;;;;;;10.27;3.90;;;16.00;62.90;;;;;;10441940;28;20048;-55
2022/12/19 21:17:13;;;;;;;6.50;4.10;;;16.00;62.80;;;;;;10445767;28;20368;-54
2022/12/19 21:22:14;;;;;;;6.25;3.10;;;16.00;62.80;;;;;;10446655;28;20029;-55
2022/12/19 21:27:14;;;;;;;6.55;3.38;;;15.90;62.80;;;;;;10446974;28;20025;-52
2022/12/19 21:32:15;;;;;;;7.75;3.63;;;16.00;62.60;;;;;;10445293;28;20140;-55
2022/12/19 21:37:16;;;;;;;5.30;2.90;;;16.00;62.50;;;;;;10444907;28;20060;-55
2022/12/19 21:42:16;;;;;;;5.85;3.10;;;16.00;62.50;;;;;;10432278;28;20128;-56
2022/12/19 21:47:17;;;;;;;4.60;3.00;;;16.00;62.50;;;;;;10408989;28;20084;-55
2022/12/19 21:52:18;;;;;;;6.55;2.95;;;16.00;62.50;;;;;;10446338;28;20120;-55
2022/12/19 21:57:18;;;;;;;4.88;2.67;;;16.00;62.50;;;;;;10446085;28;20101;-55
2022/12/19 22:02:19;;;;;;;3.85;2.65;;;16.00;62.40;;;;;;10445894;28;20839;-53
2022/12/19 22:07:20;;;;;;;4.22;2.70;;;16.00;62.40;;;;;;10444781;28;20104;-55
2022/12/19 22:12:20;;;;;;;5.07;2.75;;;16.00;62.30;;;;;;10436936;28;20104;-55
2022/12/19 22:17:21;;;;;;;4.82;2.45;;;16.10;62.10;;;;;;10404825;28;20021;-54
2022/12/19 22:22:22;;;;;;;8.70;3.50;;;16.00;62.10;;;;;;10419408;28;20061;-55
2022/12/19 22:27:23;;;;;;;3.85;1.98;;;16.10;62.10;;;;;;10432420;28;20048;-55
2022/12/19 22:32:24;;;;;;;4.93;3.00;;;16.00;62.20;;;;;;10416585;28;20112;-54
2022/12/19 22:37:25;;;;;;;4.97;2.78;;;16.00;62.20;;;;;;10438567;28;20067;-55
2022/12/19 22:42:27;;;;;;;4.72;3.22;;;16.00;62.10;;;;;;10411491;28;20081;-55
2022/12/19 22:47:27;;;;;;;5.63;3.03;;;16.00;62.10;;;;;;10411279;28;20033;-55
2022/12/19 22:52:28;;;;;;;6.15;3.10;;;16.00;62.10;;;;;;10411185;28;20109;-55
2022/12/19 22:57:28;;;;;;;3.58;2.13;;;16.00;62.10;;;;;;10410914;28;20083;-56
2022/12/19 23:02:30;;;;;;;4.50;2.40;;;16.00;62.10;;;;;;10434682;28;20065;-55
2022/12/19 23:07:31;;;;;;;5.45;1.90;;;16.00;62.00;;;;;;10413940;28;20633;-54
2022/12/19 23:12:32;;;;;;;3.60;1.70;;;16.00;62.10;;;;;;10409349;28;20021;-55
2022/12/19 23:17:33;;;;;;;2.92;1.80;;;16.00;62.00;;;;;;10449669;28;20023;-55
2022/12/19 23:22:33;;;;;;;4.40;2.50;;;16.00;62.00;;;;;;10449853;28;20070;-53
2022/12/19 23:27:34;;;;;;;4.20;1.88;;;16.00;62.00;;;;;;10451243;28;20028;-56
2022/12/19 23:32:35;;;;;;;3.85;2.17;;;16.00;61.80;;;;;;10450622;28;20052;-54
2022/12/19 23:37:35;;;;;;;3.28;1.70;;;16.10;61.70;;;;;;10419485;28;20109;-56
2022/12/19 23:42:36;;;;;;;3.55;2.20;;;16.10;61.90;;;;;;10407934;28;20116;-53
2022/12/19 23:47:36;;;;;;;3.15;1.70;;;16.10;61.70;;;;;;10390245;28;20133;-54
2022/12/19 23:52:37;;;;;;;4.25;1.98;;;16.10;61.60;;;;;;10428874;28;20029;-54
2022/12/19 23:57:38;;;;;;;3.95;1.80;;;16.10;61.60;;;;;;10413979;28;20405;-55
